createdAt,value
2017-08-03T00:01:20.530Z,22.10
2017-08-03T00:03:48.715Z,22.20
2017-08-03T00:06:16.130Z,22.20
2017-08-03T00:08:43.543Z,22.20
2017-08-03T00:11:10.958Z,22.30
2017-08-03T00:13:39.137Z,22.30
2017-08-03T00:16:07.322Z,22.40
2017-08-03T00:18:35.498Z,22.30
2017-08-03T00:21:02.923Z,22.30
2017-08-03T00:23:30.330Z,22.40
2017-08-03T00:25:57.804Z,22.50
2017-08-03T00:28:25.186Z,22.50
2017-08-03T00:30:52.602Z,22.60
2017-08-03T00:33:20.015Z,22.60
2017-08-03T00:35:48.198Z,22.70
2017-08-03T00:38:15.610Z,22.60
2017-08-03T00:40:43.058Z,22.70
2017-08-03T00:43:11.262Z,22.60
2017-08-03T00:45:42.310Z,22.70
2017-08-03T00:48:09.717Z,22.70
2017-08-03T00:50:37.126Z,22.60
2017-08-03T00:53:04.540Z,22.60
2017-08-03T00:55:32.866Z,22.60
2017-08-03T00:58:01.038Z,22.50
2017-08-03T01:00:29.222Z,22.40
2017-08-03T01:02:58.310Z,22.50
2017-08-03T01:05:26.698Z,22.60
2017-08-03T01:07:54.882Z,22.60
2017-08-03T01:10:23.240Z,22.60
2017-08-03T01:12:50.658Z,22.70
2017-08-03T01:15:18.075Z,22.80
2017-08-03T01:17:45.494Z,22.80
2017-08-03T01:20:12.922Z,22.90
2017-08-03T01:22:40.342Z,22.80
2017-08-03T01:25:07.758Z,22.80
2017-08-03T01:27:35.170Z,22.90
2017-08-03T01:30:02.597Z,22.80
2017-08-03T01:32:30.776Z,22.80
2017-08-03T01:34:59.723Z,22.70
2017-08-03T01:37:27.135Z,22.80
2017-08-03T01:39:54.539Z,22.70
2017-08-03T01:42:21.949Z,22.70
2017-08-03T01:44:49.375Z,22.70
2017-08-03T01:47:34.059Z,22.70
2017-08-03T01:50:01.477Z,22.80
2017-08-03T01:52:28.888Z,22.90
2017-08-03T01:54:56.310Z,22.80
2017-08-03T01:57:23.722Z,22.80
2017-08-03T01:59:51.391Z,22.80
2017-08-03T02:02:18.791Z,22.70
2017-08-03T02:04:46.970Z,22.80
2017-08-03T02:07:14.395Z,22.90
2017-08-03T02:09:41.802Z,23.00
2017-08-03T02:12:09.226Z,23.00
2017-08-03T02:14:37.410Z,22.90
2017-08-03T02:17:04.826Z,22.90
2017-08-03T02:19:32.233Z,22.90
2017-08-03T02:21:59.653Z,23.00
2017-08-03T02:24:27.070Z,23.00
2017-08-03T02:26:55.378Z,22.80
2017-08-03T02:29:23.138Z,22.80
2017-08-03T02:31:50.553Z,22.80
2017-08-03T02:34:17.959Z,22.90
2017-08-03T02:36:45.395Z,22.80
2017-08-03T02:39:12.810Z,22.80
2017-08-03T02:41:40.238Z,22.80
2017-08-03T02:44:08.413Z,22.80
2017-08-03T02:46:36.585Z,22.90
2017-08-03T02:49:04.772Z,23.00
2017-08-03T02:51:32.951Z,23.00
2017-08-03T02:54:01.135Z,23.00
2017-08-03T02:56:28.542Z,23.00
2017-08-03T02:58:56.747Z,23.00
2017-08-03T03:01:25.702Z,23.10
2017-08-03T03:03:54.810Z,23.10
2017-08-03T03:06:22.221Z,23.10
2017-08-03T03:08:49.637Z,23.10
2017-08-03T03:11:17.814Z,23.20
2017-08-03T03:13:45.995Z,23.20
2017-08-03T03:16:14.171Z,23.20
2017-08-03T03:18:42.370Z,23.30
2017-08-03T03:21:09.778Z,23.30
2017-08-03T03:23:37.185Z,23.30
2017-08-03T03:26:04.606Z,23.30
2017-08-03T03:28:32.731Z,23.20
2017-08-03T03:31:00.135Z,23.20
2017-08-03T03:33:28.311Z,23.30
2017-08-03T03:35:56.504Z,23.40
2017-08-03T03:38:23.918Z,23.30
2017-08-03T03:40:51.352Z,23.40
2017-08-03T03:43:18.758Z,23.40
2017-08-03T03:45:46.182Z,23.30
2017-08-03T03:48:14.622Z,23.30
2017-08-03T03:50:42.725Z,23.30
2017-08-03T03:53:10.141Z,23.30
2017-08-03T03:55:37.558Z,23.30
2017-08-03T03:58:04.970Z,23.30
2017-08-03T04:00:32.389Z,23.30
2017-08-03T04:03:00.584Z,23.60
2017-08-03T04:05:27.985Z,23.50
2017-08-03T04:07:55.426Z,23.70
2017-08-03T04:10:22.830Z,23.80
2017-08-03T04:12:51.901Z,23.90
2017-08-03T04:15:19.519Z,23.80
2017-08-03T04:17:46.933Z,23.90
2017-08-03T04:20:14.990Z,24.00
2017-08-03T04:22:42.911Z,23.90
2017-08-03T04:25:10.322Z,23.90
2017-08-03T04:27:37.735Z,23.80
2017-08-03T04:30:05.153Z,23.60
2017-08-03T04:32:33.337Z,23.40
2017-08-03T04:35:00.747Z,23.40
2017-08-03T04:37:28.165Z,23.40
2017-08-03T04:39:55.589Z,23.30
2017-08-03T04:42:23.762Z,22.80
2017-08-03T04:44:51.942Z,22.80
2017-08-03T04:47:20.117Z,23.00
2017-08-03T04:49:48.307Z,23.20
2017-08-03T04:52:16.849Z,23.10
2017-08-03T04:54:44.273Z,23.30
2017-08-03T04:57:11.678Z,23.30
2017-08-03T04:59:39.866Z,23.20
2017-08-03T05:02:07.286Z,23.30
2017-08-03T05:04:34.701Z,23.20
2017-08-03T05:07:02.109Z,23.40
2017-08-03T05:09:30.306Z,23.60
2017-08-03T05:11:58.478Z,23.50
2017-08-03T05:14:25.904Z,23.50
2017-08-03T05:16:53.858Z,23.50
2017-08-03T05:19:21.297Z,23.60
2017-08-03T05:21:48.710Z,23.60
2017-08-03T05:24:16.890Z,23.30
2017-08-03T05:26:45.087Z,23.10
2017-08-03T05:29:12.489Z,23.10
2017-08-03T05:31:40.441Z,23.10
2017-08-03T05:34:07.858Z,23.00
2017-08-03T05:36:35.279Z,22.90
2017-08-03T05:39:03.593Z,22.70
2017-08-03T05:41:31.018Z,22.50
2017-08-03T05:43:59.202Z,22.40
2017-08-03T05:49:21.366Z,22.10
2017-08-03T05:51:48.794Z,22.10
2017-08-03T05:54:16.211Z,22.00
2017-08-03T05:56:43.647Z,22.00
2017-08-03T05:59:11.054Z,22.00
2017-08-03T06:01:38.494Z,21.70
2017-08-03T06:04:05.906Z,21.60
2017-08-03T06:06:33.338Z,21.70
2017-08-03T06:09:01.517Z,21.60
2017-08-03T06:11:29.706Z,21.70
2017-08-03T06:13:57.131Z,21.60
2017-08-03T06:16:24.555Z,21.70
2017-08-03T06:18:51.974Z,21.80
2017-08-03T06:21:19.394Z,22.00
2017-08-03T06:23:46.818Z,22.20
2017-08-03T06:26:15.058Z,22.40
2017-08-03T06:28:43.399Z,22.60
2017-08-03T06:31:10.810Z,22.80
2017-08-03T06:33:38.235Z,22.90
2017-08-03T06:36:06.436Z,23.20
2017-08-03T06:38:34.079Z,23.20
2017-08-03T06:41:02.162Z,23.50
2017-08-03T06:43:29.592Z,23.60
2017-08-03T06:46:07.343Z,23.90
2017-08-03T06:48:35.013Z,24.10
2017-08-03T06:51:02.402Z,24.20
2017-08-03T06:53:29.818Z,24.30
2017-08-03T06:55:58.038Z,24.40
2017-08-03T06:58:26.214Z,24.70
2017-08-03T07:00:54.394Z,24.80
2017-08-03T07:03:22.565Z,24.90
2017-08-03T07:05:50.746Z,24.90
2017-08-03T07:08:18.935Z,24.90
2017-08-03T07:10:46.354Z,24.90
2017-08-03T07:13:14.453Z,24.90
2017-08-03T07:15:41.873Z,25.00
2017-08-03T07:18:09.297Z,24.90
2017-08-03T07:20:37.386Z,24.70
2017-08-03T07:23:05.454Z,24.70
2017-08-03T07:25:33.677Z,24.50
2017-08-03T07:28:01.855Z,24.40
2017-08-03T07:30:30.233Z,24.20
2017-08-03T07:32:58.419Z,24.10
2017-08-03T07:35:26.418Z,24.10
2017-08-03T07:37:53.829Z,24.20
2017-08-03T07:40:23.114Z,24.40
2017-08-03T07:43:10.807Z,24.40
2017-08-03T07:51:44.483Z,24.40
2017-08-03T07:54:11.887Z,24.40
2017-08-03T07:56:39.307Z,24.20
2017-08-03T07:59:07.491Z,24.30
2017-08-03T08:01:35.677Z,24.20
2017-08-03T08:04:03.086Z,24.20
2017-08-03T08:06:31.015Z,24.30
2017-08-03T08:08:58.426Z,24.20
2017-08-03T08:11:26.150Z,24.30
2017-08-03T08:13:53.550Z,24.30
2017-08-03T08:16:21.731Z,24.10
2017-08-03T08:18:49.933Z,24.10
2017-08-03T08:21:17.329Z,24.10
2017-08-03T08:23:44.793Z,24.10
2017-08-03T08:26:12.170Z,24.20
2017-08-03T08:28:40.354Z,24.20
2017-08-03T08:31:08.546Z,24.00
2017-08-03T08:33:35.962Z,24.00
2017-08-03T08:36:03.381Z,24.10
2017-08-03T08:38:30.781Z,24.20
2017-08-03T08:40:58.198Z,24.30
2017-08-03T08:43:26.031Z,24.40
2017-08-03T08:45:53.452Z,24.50
2017-08-03T08:48:21.648Z,24.60
2017-08-03T08:50:49.817Z,24.70
2017-08-03T08:53:17.996Z,24.70
2017-08-03T08:55:46.186Z,24.70
2017-08-03T08:58:13.587Z,24.70
2017-08-03T09:00:41.021Z,24.80
2017-08-03T09:03:08.427Z,24.70
2017-08-03T09:05:36.610Z,24.70
2017-08-03T09:08:04.798Z,24.90
2017-08-03T09:10:32.211Z,24.90
2017-08-03T09:12:59.638Z,24.90
2017-08-03T09:15:27.052Z,24.50
2017-08-03T09:17:56.267Z,24.40
2017-08-03T09:20:23.695Z,24.40
2017-08-03T09:22:51.903Z,24.30
2017-08-03T09:25:20.411Z,24.20
2017-08-03T09:27:47.832Z,24.10
2017-08-03T09:30:15.245Z,24.00
2017-08-03T09:32:43.562Z,23.80
2017-08-03T09:35:11.514Z,23.70
2017-08-03T09:37:40.626Z,23.80
2017-08-03T09:40:08.045Z,23.80
2017-08-03T09:42:35.471Z,23.40
2017-08-03T09:45:02.882Z,23.20
2017-08-03T09:47:40.929Z,23.50
2017-08-03T09:50:08.720Z,23.50
2017-08-03T09:52:36.142Z,23.60
2017-08-03T09:55:03.552Z,23.60
2017-08-03T09:57:31.494Z,23.60
2017-08-03T09:59:58.910Z,23.50
2017-08-03T10:02:26.330Z,23.60
2017-08-03T10:04:54.545Z,23.40
2017-08-03T10:07:21.979Z,23.60
2017-08-03T10:09:50.162Z,23.50
2017-08-03T10:12:17.587Z,23.50
2017-08-03T10:14:45.004Z,24.00
2017-08-03T10:17:12.430Z,24.20
2017-08-03T10:19:39.858Z,24.40
2017-08-03T10:22:07.275Z,24.80
2017-08-03T10:24:36.527Z,25.30
2017-08-03T10:27:04.706Z,25.30
2017-08-03T10:29:32.890Z,25.20
2017-08-03T10:32:00.302Z,25.20
2017-08-03T10:34:27.714Z,25.10
2017-08-03T10:36:55.394Z,24.90
2017-08-03T10:39:22.815Z,25.20
2017-08-03T10:41:50.227Z,25.40
2017-08-03T10:44:17.662Z,25.30
2017-08-03T10:49:38.205Z,25.00
2017-08-03T10:52:06.423Z,24.80
2017-08-03T10:54:33.861Z,24.70
2017-08-03T10:57:02.038Z,24.60
2017-08-03T10:59:30.223Z,24.70
2017-08-03T11:01:57.993Z,24.60
2017-08-03T11:04:25.416Z,24.60
2017-08-03T11:06:52.836Z,24.60
2017-08-03T11:09:20.258Z,25.00
2017-08-03T11:11:47.674Z,25.60
2017-08-03T11:14:15.104Z,26.30
2017-08-03T11:16:42.518Z,26.80
2017-08-03T11:19:10.685Z,28.20
2017-08-03T11:21:38.878Z,28.60
2017-08-03T11:24:06.294Z,28.60
2017-08-03T11:26:33.721Z,29.00
2017-08-03T11:29:01.913Z,29.40
2017-08-03T11:31:30.226Z,29.40
2017-08-03T11:33:58.418Z,29.70
2017-08-03T11:36:25.869Z,29.70
2017-08-03T11:38:54.042Z,30.30
2017-08-03T11:41:21.461Z,30.30
2017-08-03T11:43:48.883Z,30.10
2017-08-03T11:46:40.110Z,30.40
2017-08-03T11:49:07.554Z,30.40
2017-08-03T11:51:35.469Z,30.40
2017-08-03T11:54:02.883Z,30.40
2017-08-03T11:56:30.303Z,30.80
2017-08-03T11:58:58.618Z,30.70
2017-08-03T12:01:26.030Z,30.80
2017-08-03T12:03:53.450Z,30.50
2017-08-03T12:06:20.863Z,30.50
2017-08-03T12:08:48.282Z,30.30
2017-08-03T12:11:16.462Z,30.80
2017-08-03T12:13:45.566Z,30.60
2017-08-03T12:16:13.744Z,30.30
2017-08-03T12:18:41.851Z,30.30
2017-08-03T12:21:09.256Z,30.00
2017-08-03T12:23:37.434Z,30.00
2017-08-03T12:26:05.612Z,30.00
2017-08-03T12:28:33.799Z,30.50
2017-08-03T12:31:01.222Z,30.50
2017-08-03T12:33:28.646Z,30.70
2017-08-03T12:35:56.069Z,30.60
2017-08-03T12:38:23.477Z,30.10
2017-08-03T12:40:50.890Z,30.50
2017-08-03T12:43:19.106Z,30.20
2017-08-03T12:48:47.173Z,30.60
2017-08-03T12:51:14.591Z,31.10
2017-08-03T12:53:42.007Z,31.40
2017-08-03T12:56:09.423Z,31.50
2017-08-03T12:58:37.106Z,30.90
2017-08-03T13:01:04.509Z,30.50
2017-08-03T13:03:32.682Z,30.90
2017-08-03T13:06:00.866Z,30.90
2017-08-03T13:08:29.049Z,30.50
2017-08-03T13:10:56.465Z,30.40
2017-08-03T13:13:23.870Z,30.50
2017-08-03T13:15:51.286Z,30.60
2017-08-03T13:18:19.235Z,30.50
2017-08-03T13:20:46.862Z,30.40
2017-08-03T13:23:14.283Z,30.30
2017-08-03T13:25:41.690Z,30.40
2017-08-03T13:28:09.642Z,30.20
2017-08-03T13:30:37.058Z,29.90
2017-08-03T13:33:04.471Z,29.80
2017-08-03T13:35:31.894Z,29.80
2017-08-03T13:37:59.306Z,29.80
2017-08-03T13:40:27.410Z,30.00
2017-08-03T13:42:56.102Z,29.30
2017-08-03T13:48:34.642Z,29.40
2017-08-03T13:51:02.061Z,29.80
2017-08-03T13:53:29.481Z,30.00
2017-08-03T13:55:56.916Z,30.30
2017-08-03T13:58:25.261Z,29.70
2017-08-03T14:00:52.683Z,30.20
2017-08-03T14:03:20.086Z,30.20
2017-08-03T14:05:48.274Z,29.50
2017-08-03T14:08:16.446Z,28.90
2017-08-03T14:10:44.622Z,29.00
2017-08-03T14:13:12.039Z,29.00
2017-08-03T14:15:39.454Z,28.90
2017-08-03T14:18:06.870Z,28.50
2017-08-03T14:20:35.050Z,28.50
2017-08-03T14:23:02.487Z,28.50
2017-08-03T14:25:29.906Z,28.80
2017-08-03T14:27:58.238Z,29.30
2017-08-03T14:30:26.422Z,30.60
2017-08-03T14:32:54.611Z,30.20
2017-08-03T14:35:22.028Z,30.20
2017-08-03T14:37:49.448Z,29.60
2017-08-03T14:40:16.858Z,29.50
2017-08-03T14:42:47.131Z,29.30
2017-08-03T14:45:15.067Z,29.40
2017-08-03T14:47:42.994Z,29.40
2017-08-03T14:50:10.415Z,29.20
2017-08-03T14:52:37.825Z,29.40
2017-08-03T14:55:06.030Z,29.10
2017-08-03T14:57:33.450Z,29.10
2017-08-03T15:00:01.621Z,28.50
2017-08-03T15:02:29.811Z,28.30
2017-08-03T15:04:57.993Z,28.20
2017-08-03T15:07:26.175Z,28.10
2017-08-03T15:09:54.407Z,28.10
2017-08-03T15:12:21.828Z,28.10
2017-08-03T15:14:49.237Z,28.10
2017-08-03T15:17:17.418Z,27.40
2017-08-03T15:19:45.590Z,27.30
2017-08-03T15:22:14.542Z,27.10
2017-08-03T15:24:41.951Z,27.10
2017-08-03T15:27:09.371Z,27.00
2017-08-03T15:29:36.796Z,26.70
2017-08-03T15:32:04.221Z,27.00
2017-08-03T15:34:31.634Z,27.20
2017-08-03T15:36:59.064Z,27.10
2017-08-03T15:39:26.474Z,27.00
2017-08-03T15:41:54.663Z,26.40
2017-08-03T15:44:22.069Z,26.40
2017-08-03T15:49:44.304Z,26.50
2017-08-03T15:52:11.718Z,26.70
2017-08-03T15:54:39.898Z,27.70
2017-08-03T15:57:08.415Z,28.60
2017-08-03T15:59:35.831Z,28.60
2017-08-03T16:02:03.994Z,29.50
2017-08-03T16:04:32.187Z,29.00
2017-08-03T16:06:59.590Z,29.00
2017-08-03T16:09:27.895Z,28.90
2017-08-03T16:11:55.312Z,29.20
2017-08-03T16:14:22.734Z,28.90
2017-08-03T16:16:51.050Z,29.40
2017-08-03T16:19:18.479Z,29.60
2017-08-03T16:21:45.883Z,29.40
2017-08-03T16:24:13.308Z,29.70
2017-08-03T16:26:40.720Z,29.70
2017-08-03T16:29:08.902Z,27.80
2017-08-03T16:31:37.215Z,27.80
2017-08-03T16:34:06.606Z,27.20
2017-08-03T16:36:34.022Z,26.40
2017-08-03T16:39:02.237Z,26.10
2017-08-03T16:41:29.659Z,26.10
2017-08-03T16:43:57.842Z,26.00
2017-08-03T16:46:26.022Z,25.90
2017-08-03T16:48:53.469Z,25.90
2017-08-03T16:51:22.709Z,26.30
2017-08-03T16:53:50.126Z,26.30
2017-08-03T16:56:18.311Z,25.70
2017-08-03T16:58:46.618Z,25.70
2017-08-03T17:01:14.045Z,25.60
2017-08-03T17:03:41.459Z,25.70
2017-08-03T17:06:10.392Z,25.60
2017-08-03T17:08:37.801Z,25.40
2017-08-03T17:11:05.218Z,25.30
2017-08-03T17:13:32.652Z,25.10
2017-08-03T17:16:00.838Z,25.00
2017-08-03T17:18:28.241Z,24.90
2017-08-03T17:20:56.265Z,24.80
2017-08-03T17:23:24.263Z,24.80
2017-08-03T17:25:51.681Z,24.70
2017-08-03T17:28:19.091Z,24.70
2017-08-03T17:30:46.527Z,24.70
2017-08-03T17:33:13.942Z,24.80
2017-08-03T17:35:42.110Z,25.00
2017-08-03T17:38:10.293Z,25.00
2017-08-03T17:40:37.711Z,25.00
2017-08-03T17:57:32.330Z,24.10
2017-08-03T18:00:00.909Z,24.00
2017-08-03T18:02:28.313Z,24.00
2017-08-03T18:04:55.738Z,24.20
2017-08-03T18:07:23.158Z,24.10
2017-08-03T18:09:50.577Z,24.10
2017-08-03T18:12:17.982Z,23.90
2017-08-03T18:14:46.162Z,24.00
2017-08-03T18:17:14.339Z,23.90
2017-08-03T18:19:42.526Z,23.70
2017-08-03T18:22:09.943Z,23.70
2017-08-03T18:24:37.362Z,23.50
2017-08-03T18:27:04.774Z,23.30
2017-08-03T18:29:33.875Z,23.10
2017-08-03T18:32:02.060Z,22.90
2017-08-03T18:34:30.240Z,22.90
2017-08-03T18:36:57.651Z,22.90
2017-08-03T18:39:25.078Z,22.80
2017-08-03T18:41:52.485Z,22.90
2017-08-03T18:44:19.911Z,22.70
2017-08-03T18:46:47.330Z,22.60
2017-08-03T18:49:14.758Z,22.50
2017-08-03T18:51:42.941Z,22.60
2017-08-03T18:54:10.354Z,22.50
2017-08-03T18:56:52.237Z,22.50
2017-08-03T18:59:19.638Z,22.50
2017-08-03T19:01:47.822Z,22.60
2017-08-03T19:04:15.239Z,22.50
2017-08-03T19:06:42.664Z,22.60
2017-08-03T19:09:10.087Z,22.50
2017-08-03T19:11:37.558Z,22.30
2017-08-03T19:14:05.730Z,22.10
2017-08-03T19:16:33.152Z,22.10
2017-08-03T19:19:00.564Z,22.10
2017-08-03T19:21:28.000Z,22.10
2017-08-03T19:23:56.182Z,22.40
2017-08-03T19:26:24.395Z,22.30
2017-08-03T19:28:51.802Z,22.40
2017-08-03T19:31:19.244Z,22.40
2017-08-03T19:33:47.414Z,22.40
2017-08-03T19:36:14.826Z,22.30
2017-08-03T19:38:42.638Z,22.30
2017-08-03T19:41:10.814Z,22.20
2017-08-03T19:43:39.006Z,22.20
2017-08-03T19:46:07.223Z,22.20
2017-08-03T19:48:35.154Z,22.20
2017-08-03T19:51:02.567Z,22.20
2017-08-03T19:53:29.983Z,22.10
2017-08-03T19:55:57.382Z,22.00
2017-08-03T19:58:25.571Z,22.00
2017-08-03T20:00:54.674Z,21.90
2017-08-03T20:03:23.018Z,21.90
2017-08-03T20:05:50.433Z,21.90
2017-08-03T20:08:38.498Z,21.90
2017-08-03T20:11:11.791Z,21.80
2017-08-03T20:13:39.227Z,21.70
2017-08-03T20:16:06.634Z,21.70
2017-08-03T20:18:34.825Z,21.60
2017-08-03T20:21:03.022Z,21.60
2017-08-03T20:23:30.658Z,21.60
2017-08-03T20:25:58.827Z,21.60
2017-08-03T20:28:28.030Z,21.70
2017-08-03T20:30:56.215Z,21.70
2017-08-03T20:33:23.622Z,21.70
2017-08-03T20:35:51.038Z,21.60
2017-08-03T20:38:18.462Z,21.60
2017-08-03T20:40:45.870Z,21.60
2017-08-03T20:43:13.298Z,21.50
2017-08-03T20:45:40.722Z,21.40
2017-08-03T20:48:08.146Z,21.40
2017-08-03T20:50:35.563Z,21.40
2017-08-03T20:53:02.985Z,21.40
2017-08-03T20:55:30.484Z,21.40
2017-08-03T20:57:57.965Z,21.30
2017-08-03T21:00:25.370Z,21.20
2017-08-03T21:02:52.787Z,21.20
2017-08-03T21:05:20.203Z,21.20
2017-08-03T21:07:47.746Z,21.20
2017-08-03T21:10:16.686Z,21.20
2017-08-03T21:12:44.115Z,21.20
2017-08-03T21:15:12.142Z,21.10
2017-08-03T21:17:39.560Z,21.10
2017-08-03T21:20:06.971Z,21.10
2017-08-03T21:22:34.395Z,21.10
2017-08-03T21:25:01.807Z,21.10
2017-08-03T21:27:30.111Z,21.10
2017-08-03T21:29:57.540Z,21.10
2017-08-03T21:32:24.951Z,21.20
2017-08-03T21:34:52.992Z,21.20
2017-08-03T21:37:20.404Z,21.20
2017-08-03T21:39:48.575Z,21.00
2017-08-03T21:42:16.779Z,21.10
2017-08-03T21:44:44.193Z,21.10
2017-08-03T21:47:11.609Z,21.10
2017-08-03T21:49:39.790Z,20.80
2017-08-03T21:52:07.211Z,20.80
2017-08-03T21:54:34.870Z,20.60
2017-08-03T21:57:02.274Z,20.50
2017-08-03T21:59:29.704Z,20.60
2017-08-03T22:01:57.118Z,20.50
2017-08-03T22:04:25.305Z,19.80
2017-08-03T22:06:53.480Z,19.80
2017-08-03T22:09:20.903Z,19.70
2017-08-03T22:11:48.326Z,19.90
2017-08-03T22:14:16.240Z,19.80
2017-08-03T22:16:43.650Z,20.00
2017-08-03T22:19:11.062Z,19.90
2017-08-03T22:21:38.473Z,20.00
2017-08-03T22:24:05.901Z,20.10
2017-08-03T22:26:34.020Z,20.10
2017-08-03T22:29:01.435Z,20.30
2017-08-03T22:31:28.861Z,20.40
2017-08-03T22:33:57.029Z,20.60
2017-08-03T22:36:25.214Z,20.60
2017-08-03T22:38:52.628Z,20.50
2017-08-03T22:41:21.037Z,20.40
2017-08-03T22:43:48.447Z,20.30
2017-08-03T22:46:15.869Z,20.20
2017-08-03T22:48:43.278Z,20.10
2017-08-03T22:51:10.746Z,20.10
2017-08-03T22:53:38.157Z,20.00
2017-08-03T22:56:05.600Z,19.90
2017-08-03T22:58:33.006Z,19.90
2017-08-03T23:01:00.423Z,20.00
2017-08-03T23:03:27.842Z,20.00
2017-08-03T23:05:55.267Z,20.10
2017-08-03T23:08:23.287Z,20.00
2017-08-03T23:10:50.703Z,19.90
2017-08-03T23:13:18.916Z,19.90
2017-08-03T23:15:47.097Z,19.80
2017-08-03T23:18:14.507Z,19.80
2017-08-03T23:20:41.930Z,19.70
2017-08-03T23:23:09.351Z,19.80
2017-08-03T23:25:38.063Z,19.60
2017-08-03T23:28:05.477Z,19.60
2017-08-03T23:30:32.890Z,19.50
2017-08-03T23:33:00.757Z,19.50
2017-08-03T23:35:28.150Z,19.50
2017-08-03T23:37:56.484Z,19.50
2017-08-03T23:40:23.902Z,19.60
2017-08-03T23:42:52.087Z,19.70
2017-08-03T23:45:19.505Z,19.70
2017-08-03T23:47:47.835Z,19.70
2017-08-03T23:50:15.941Z,19.50
2017-08-03T23:52:43.358Z,19.30
2017-08-03T23:55:10.782Z,19.30
2017-08-03T23:57:38.199Z,19.20
